Terminal Aerodrome Forecast
Issued by NWS Boston, MA

Home | Current Version | Previous Version | Text Only | Print | Product List | Glossary On
Versions: 1 2 3 4 5 6 7 8 9 10 11 12 13 14 15 16 17 18 19 20 21 22 23 24 25 26 27 28 29 30 31 32 33 34 35 36 37 38 39 40 41 42 43 44 45 46 47 48 49 50
000
FTUS41 KBOX 012321
TAFBOS
TAF
KBOS 012321Z 0200/0306 33007KT P6SM BKN250
     FM020300 36007KT P6SM BKN100
     FM020500 01006KT P6SM OVC025
     FM020700 02006KT 3SM -SN OVC015
     FM021000 07013KT 3/4SM -SN OVC008
     FM021200 09016KT 1/4SM +SN OVC005
     FM022200 34016G27KT 3SM -SN OVC025
     FM030200 33015G26KT P6SM OVC030=

USA.gov is the U.S. government's official web portal to all federal, state and local government web resources and services.